createdAt,value
2023-02-27T00:00:48.884Z,94131.16
2023-02-27T00:03:16.835Z,94130.34
2023-02-27T00:05:44.980Z,94128.00
2023-02-27T00:08:12.945Z,94133.13
2023-02-27T00:10:40.927Z,94137.81
2023-02-27T00:13:10.125Z,94143.38
2023-02-27T00:15:41.001Z,94139.41
2023-02-27T00:18:10.505Z,94126.78
2023-02-27T00:20:38.829Z,94142.22
2023-02-27T00:23:07.748Z,94139.44
2023-02-27T00:25:36.494Z,94149.31
2023-02-27T00:28:05.032Z,94147.03
2023-02-27T00:30:33.069Z,94156.41
2023-02-27T00:33:01.377Z,94146.81
2023-02-27T00:35:30.774Z,94148.41
2023-02-27T00:37:58.742Z,94143.69
2023-02-27T00:40:26.730Z,94163.56
2023-02-27T00:42:54.967Z,94163.22
2023-02-27T00:45:22.947Z,94168.56
2023-02-27T00:47:51.007Z,94176.97
2023-02-27T00:50:19.291Z,94179.97
2023-02-27T00:52:48.650Z,94183.78
2023-02-27T00:55:16.730Z,94179.22
2023-02-27T00:57:44.735Z,94185.97
2023-02-27T01:00:13.861Z,94182.56
2023-02-27T01:02:41.907Z,94184.97
2023-02-27T01:05:10.921Z,94196.06
2023-02-27T01:07:38.920Z,94191.13
2023-02-27T01:10:11.311Z,94183.38
2023-02-27T01:12:39.508Z,94196.81
2023-02-27T01:15:09.689Z,94194.69
2023-02-27T01:17:37.994Z,94202.09
2023-02-27T01:20:07.644Z,94196.00
2023-02-27T01:22:36.106Z,94198.81
2023-02-27T01:25:04.522Z,94204.31
2023-02-27T01:27:34.107Z,94200.78
2023-02-27T01:30:02.081Z,94211.03
2023-02-27T01:32:30.142Z,94215.00
2023-02-27T01:34:58.181Z,94211.88
2023-02-27T01:37:27.354Z,94218.66
2023-02-27T01:39:55.329Z,94209.56
2023-02-27T01:42:26.025Z,94208.22
2023-02-27T01:45:41.915Z,94219.56
2023-02-27T01:48:17.011Z,94222.72
2023-02-27T01:50:50.915Z,94226.88
2023-02-27T01:53:20.885Z,94222.81
2023-02-27T01:55:50.750Z,94220.50
2023-02-27T01:58:19.181Z,94240.31
2023-02-27T02:00:48.182Z,94223.69
2023-02-27T02:03:24.287Z,94226.47
2023-02-27T02:05:56.664Z,94220.94
2023-02-27T02:08:28.277Z,94233.50
2023-02-27T02:10:58.105Z,94221.28
2023-02-27T02:13:26.515Z,94234.09
2023-02-27T02:16:06.111Z,94237.44
2023-02-27T02:18:48.559Z,94230.09
2023-02-27T02:21:45.603Z,94240.88
2023-02-27T02:24:48.501Z,94231.16
2023-02-27T02:27:35.990Z,94232.97
2023-02-27T02:30:47.267Z,94235.94
2023-02-27T02:34:08.944Z,94241.94
2023-02-27T02:37:14.403Z,94247.56
2023-02-27T02:40:06.406Z,94254.34
2023-02-27T02:42:40.023Z,94247.25
2023-02-27T02:45:18.415Z,94250.56
2023-02-27T02:48:00.998Z,94257.19
2023-02-27T02:50:36.207Z,94243.16
2023-02-27T02:53:11.984Z,94255.72
2023-02-27T02:55:47.035Z,94259.06
2023-02-27T02:58:23.023Z,94252.75
2023-02-27T03:00:57.690Z,94251.97
2023-02-27T03:03:29.463Z,94258.06
2023-02-27T03:06:02.440Z,94252.75
2023-02-27T03:08:35.802Z,94252.72
2023-02-27T03:11:06.823Z,94247.63
2023-02-27T03:13:41.273Z,94255.06
2023-02-27T03:16:15.826Z,94244.16
2023-02-27T03:18:50.577Z,94251.75
2023-02-27T03:21:23.831Z,94254.31
2023-02-27T03:23:54.090Z,94247.31
2023-02-27T03:26:30.646Z,94259.19
2023-02-27T03:29:02.668Z,94257.00
2023-02-27T03:31:38.446Z,94259.69
2023-02-27T03:34:14.354Z,94273.25
2023-02-27T03:36:49.399Z,94273.25
2023-02-27T03:39:28.674Z,94275.94
2023-02-27T03:42:07.329Z,94285.75
2023-02-27T03:45:01.636Z,94287.94
2023-02-27T03:47:30.258Z,94288.72
2023-02-27T03:49:58.799Z,94294.28
2023-02-27T03:52:28.409Z,94289.50
2023-02-27T03:55:01.452Z,94290.91
2023-02-27T03:57:32.889Z,94304.22
2023-02-27T04:00:01.067Z,94304.97
2023-02-27T04:02:29.702Z,94311.22
2023-02-27T04:04:57.851Z,94303.00
2023-02-27T04:07:53.475Z,94306.09
2023-02-27T04:10:32.638Z,94313.78
2023-02-27T04:13:36.090Z,94316.59
2023-02-27T04:16:40.335Z,94327.66
2023-02-27T04:19:30.721Z,94320.94
2023-02-27T04:22:10.952Z,94322.09
2023-02-27T04:24:48.518Z,94315.72
2023-02-27T04:27:25.294Z,94320.53
2023-02-27T04:29:59.880Z,94325.28
2023-02-27T04:32:36.864Z,94321.22
2023-02-27T04:35:09.796Z,94344.13
2023-02-27T04:37:45.541Z,94335.78
2023-02-27T04:40:19.073Z,94346.56
2023-02-27T04:42:52.176Z,94352.31
2023-02-27T04:45:24.777Z,94349.63
2023-02-27T04:47:58.030Z,94343.75
2023-02-27T04:50:31.078Z,94356.72
2023-02-27T04:53:04.673Z,94358.16
2023-02-27T04:55:37.119Z,94362.31
2023-02-27T04:58:11.120Z,94362.59
2023-02-27T05:00:42.825Z,94358.88
2023-02-27T05:03:14.927Z,94366.34
2023-02-27T05:05:45.527Z,94365.63
2023-02-27T05:08:23.229Z,94368.06
2023-02-27T05:10:57.681Z,94371.72
2023-02-27T05:13:29.265Z,94375.03
2023-02-27T05:16:05.241Z,94375.53
2023-02-27T05:18:33.574Z,94384.94
2023-02-27T05:21:10.075Z,94386.53
2023-02-27T05:24:00.277Z,94388.00
2023-02-27T05:26:37.679Z,94389.50
2023-02-27T05:29:14.707Z,94397.88
2023-02-27T05:31:49.073Z,94400.28
2023-02-27T05:34:24.689Z,94393.75
2023-02-27T05:36:58.944Z,94398.63
2023-02-27T05:39:31.444Z,94406.41
2023-02-27T05:42:02.835Z,94408.47
2023-02-27T05:44:34.152Z,94396.06
2023-02-27T05:47:06.961Z,94406.16
2023-02-27T05:49:39.316Z,94411.66
2023-02-27T05:52:12.055Z,94409.53
2023-02-27T05:54:45.696Z,94420.34
2023-02-27T05:57:16.942Z,94423.53
2023-02-27T05:59:51.203Z,94422.19
2023-02-27T06:02:20.719Z,94425.84
2023-02-27T06:04:49.155Z,94423.50
2023-02-27T06:07:17.398Z,94436.31
2023-02-27T06:09:46.421Z,94435.75
2023-02-27T06:12:14.429Z,94433.47
2023-02-27T06:14:42.392Z,94441.44
2023-02-27T06:17:10.336Z,94442.84
2023-02-27T06:19:39.719Z,94452.69
2023-02-27T06:22:07.691Z,94447.44
2023-02-27T06:24:35.656Z,94449.94
2023-02-27T06:27:03.778Z,94452.56
2023-02-27T06:29:31.766Z,94463.56
2023-02-27T06:31:59.851Z,94464.38
2023-02-27T06:34:27.980Z,94468.00
2023-02-27T06:36:57.325Z,94470.81
2023-02-27T06:39:25.302Z,94477.22
2023-02-27T06:41:53.304Z,94485.16
2023-02-27T06:44:21.770Z,94490.31
2023-02-27T06:46:49.770Z,94498.25
2023-02-27T06:49:17.919Z,94502.69
2023-02-27T06:51:46.065Z,94509.59
2023-02-27T06:54:15.649Z,94529.94
2023-02-27T06:56:43.608Z,94534.72
2023-02-27T06:59:11.647Z,94535.66
2023-02-27T07:01:39.680Z,94540.59
2023-02-27T07:04:07.827Z,94540.72
2023-02-27T07:07:35.932Z,94546.97
2023-02-27T07:09:25.147Z,94545.72
2023-02-27T07:11:53.512Z,94546.59
2023-02-27T07:14:21.861Z,94540.59
2023-02-27T07:16:51.129Z,94544.56
2023-02-27T07:19:19.267Z,94542.88
2023-02-27T07:21:47.292Z,94542.38
2023-02-27T07:24:15.298Z,94554.78
2023-02-27T07:26:44.651Z,94559.06
2023-02-27T07:29:13.028Z,94572.06
2023-02-27T07:31:40.971Z,94570.41
2023-02-27T07:34:09.668Z,94568.69
2023-02-27T07:36:37.645Z,94569.66
2023-02-27T07:39:06.283Z,94569.56
2023-02-27T07:41:34.264Z,94582.09
2023-02-27T07:44:03.813Z,94582.59
2023-02-27T07:46:32.057Z,94591.47
2023-02-27T07:49:00.178Z,94598.31
2023-02-27T07:51:28.172Z,94603.91
2023-02-27T07:53:57.729Z,94600.28
2023-02-27T07:56:25.911Z,94616.09
2023-02-27T07:58:54.022Z,94621.22
2023-02-27T08:01:23.476Z,94626.00
2023-02-27T08:03:51.416Z,94617.94
2023-02-27T08:06:19.413Z,94621.66
2023-02-27T08:08:47.366Z,94625.75
2023-02-27T08:11:15.568Z,94633.09
2023-02-27T08:14:00.108Z,94624.84
2023-02-27T08:16:31.408Z,94629.25
2023-02-27T08:19:00.135Z,94634.13
2023-02-27T08:21:29.016Z,94629.84
2023-02-27T08:23:57.252Z,94639.44
2023-02-27T08:26:25.575Z,94647.91
2023-02-27T08:28:54.083Z,94653.44
2023-02-27T08:31:22.180Z,94668.88
2023-02-27T08:34:01.164Z,94665.31
2023-02-27T08:36:37.161Z,94658.22
2023-02-27T08:39:05.276Z,94675.53
2023-02-27T08:41:33.597Z,94675.81
2023-02-27T08:44:01.822Z,94679.97
2023-02-27T08:46:30.110Z,94689.88
2023-02-27T08:48:59.700Z,94683.28
2023-02-27T08:51:28.104Z,94684.97
2023-02-27T08:53:59.055Z,94686.56
2023-02-27T08:56:27.998Z,94689.00
2023-02-27T08:58:56.540Z,94698.75
2023-02-27T09:01:27.306Z,94704.91
2023-02-27T09:03:55.560Z,94709.84
2023-02-27T09:06:26.352Z,94703.97
2023-02-27T09:08:54.711Z,94705.84
2023-02-27T09:11:22.914Z,94715.84
2023-02-27T09:13:51.496Z,94716.06
2023-02-27T09:16:20.204Z,94709.16
2023-02-27T09:18:48.861Z,94725.59
2023-02-27T09:21:17.175Z,94717.38
2023-02-27T09:23:46.565Z,94720.56
2023-02-27T09:26:14.567Z,94730.13
2023-02-27T09:28:42.625Z,94721.91
2023-02-27T09:31:11.358Z,94731.47
2023-02-27T09:33:39.993Z,94738.84
2023-02-27T09:36:09.066Z,94742.97
2023-02-27T09:38:38.845Z,94732.84
2023-02-27T09:41:22.146Z,94742.31
2023-02-27T09:43:52.378Z,94738.47
2023-02-27T09:46:22.603Z,94747.88
2023-02-27T09:48:53.232Z,94751.34
2023-02-27T09:51:22.887Z,94742.38
2023-02-27T09:53:53.954Z,94742.44
2023-02-27T09:56:26.127Z,94746.94
2023-02-27T09:59:02.418Z,94756.03
2023-02-27T10:01:34.238Z,94759.38
2023-02-27T10:04:31.587Z,94763.22
2023-02-27T10:07:08.817Z,94748.94
2023-02-27T10:09:45.376Z,94756.72
2023-02-27T10:12:26.766Z,94761.66
2023-02-27T10:14:58.953Z,94760.59
2023-02-27T10:17:31.889Z,94773.69
2023-02-27T10:20:03.708Z,94775.44
2023-02-27T10:22:36.524Z,94790.53
2023-02-27T10:25:21.302Z,94777.88
2023-02-27T10:27:58.044Z,94784.03
2023-02-27T10:30:32.370Z,94779.03
2023-02-27T10:33:10.269Z,94785.69
2023-02-27T10:35:42.269Z,94780.59
2023-02-27T10:38:15.344Z,94783.56
2023-02-27T10:40:45.204Z,94793.06
2023-02-27T10:43:18.360Z,94803.56
2023-02-27T10:45:46.390Z,94799.81
2023-02-27T10:48:15.633Z,94801.22
2023-02-27T10:50:45.692Z,94793.72
2023-02-27T10:53:22.905Z,94793.72
2023-02-27T10:56:01.600Z,94794.81
2023-02-27T10:58:34.920Z,94795.25
2023-02-27T11:01:05.603Z,94810.53
2023-02-27T11:03:37.309Z,94800.16
2023-02-27T11:06:10.247Z,94810.41
2023-02-27T11:08:38.261Z,94802.28
2023-02-27T11:11:09.440Z,94799.00
2023-02-27T11:13:40.587Z,94805.63
2023-02-27T11:16:12.471Z,94814.28
2023-02-27T11:18:41.928Z,94806.75
2023-02-27T11:21:18.157Z,94805.66
2023-02-27T11:23:55.734Z,94810.06
2023-02-27T11:26:34.250Z,94813.72
2023-02-27T11:29:14.887Z,94815.94
2023-02-27T11:31:48.708Z,94815.19
2023-02-27T11:34:23.872Z,94816.00
2023-02-27T11:36:55.674Z,94800.78
2023-02-27T11:39:28.262Z,94812.44
2023-02-27T11:41:59.270Z,94806.69
2023-02-27T11:44:49.608Z,94812.94
2023-02-27T11:47:25.081Z,94811.75
2023-02-27T11:50:11.587Z,94812.03
2023-02-27T11:52:46.846Z,94814.81
2023-02-27T11:55:18.194Z,94815.03
2023-02-27T11:57:50.858Z,94812.66
2023-02-27T12:00:26.334Z,94809.84
2023-02-27T12:03:01.836Z,94811.22
2023-02-27T12:05:35.779Z,94820.06
2023-02-27T12:08:07.528Z,94801.34
2023-02-27T12:10:46.998Z,94816.00
2023-02-27T12:13:18.972Z,94803.34
2023-02-27T12:15:52.938Z,94803.53
2023-02-27T12:18:26.830Z,94800.81
2023-02-27T12:20:58.874Z,94796.25
2023-02-27T12:23:33.806Z,94801.44
2023-02-27T12:26:08.267Z,94795.81
2023-02-27T12:28:49.204Z,94803.28
2023-02-27T12:31:46.006Z,94802.56
2023-02-27T12:34:26.005Z,94789.63
2023-02-27T12:36:55.108Z,94801.84
2023-02-27T12:39:25.137Z,94789.09
2023-02-27T12:42:28.205Z,94784.16
2023-02-27T12:45:22.653Z,94794.31
2023-02-27T12:47:59.384Z,94785.59
2023-02-27T12:50:42.916Z,94789.56
2023-02-27T12:53:26.812Z,94778.03
2023-02-27T12:55:59.103Z,94781.59
2023-02-27T12:58:40.008Z,94778.03
2023-02-27T13:01:23.405Z,94779.41
2023-02-27T13:03:59.957Z,94780.78
2023-02-27T13:06:35.909Z,94783.16
2023-02-27T13:09:16.182Z,94791.03
2023-02-27T13:11:55.537Z,94787.94
2023-02-27T13:14:35.977Z,94783.91
2023-02-27T13:17:11.877Z,94780.81
2023-02-27T13:19:48.297Z,94785.97
2023-02-27T13:22:24.741Z,94788.19
2023-02-27T13:24:56.403Z,94774.03
2023-02-27T13:27:28.663Z,94783.59
2023-02-27T13:30:08.818Z,94782.81
2023-02-27T13:32:44.348Z,94789.19
2023-02-27T13:35:28.199Z,94786.38
2023-02-27T13:37:58.463Z,94784.00
2023-02-27T13:40:33.429Z,94795.53
2023-02-27T13:43:06.436Z,94795.53
2023-02-27T13:45:52.393Z,94786.41
2023-02-27T13:48:43.894Z,94784.41
2023-02-27T13:51:45.829Z,94797.94
2023-02-27T13:54:34.108Z,94787.97
2023-02-27T13:57:18.598Z,94796.63
2023-02-27T13:59:54.817Z,94789.00
2023-02-27T14:02:34.019Z,94791.16
2023-02-27T14:05:06.343Z,94796.63
2023-02-27T14:07:51.564Z,94797.78
2023-02-27T14:10:24.054Z,94797.28
2023-02-27T14:12:53.112Z,94815.69
2023-02-27T14:15:52.556Z,94797.53
2023-02-27T14:18:53.792Z,94794.34
2023-02-27T14:21:57.874Z,94804.22
2023-02-27T14:24:33.765Z,94810.97
2023-02-27T14:27:03.154Z,94815.25
2023-02-27T14:29:34.088Z,94813.44
2023-02-27T14:32:07.115Z,94817.34
2023-02-27T14:34:39.380Z,94815.22
2023-02-27T14:37:12.040Z,94826.47
2023-02-27T14:39:42.025Z,94818.13
2023-02-27T14:42:38.254Z,94803.34
2023-02-27T14:45:13.900Z,94805.97
2023-02-27T14:47:42.407Z,94817.94
2023-02-27T14:50:24.443Z,94818.09
2023-02-27T14:52:52.462Z,94818.22
2023-02-27T14:55:29.756Z,94822.06
2023-02-27T14:58:01.604Z,94816.34
2023-02-27T15:00:36.287Z,94817.69
2023-02-27T15:03:18.444Z,94802.50
2023-02-27T15:05:47.250Z,94815.41
2023-02-27T15:08:18.835Z,94811.59
2023-02-27T15:10:48.782Z,94805.72
2023-02-27T15:13:25.477Z,94810.41
2023-02-27T15:16:16.713Z,94805.97
2023-02-27T15:18:49.675Z,94804.78
2023-02-27T15:21:18.940Z,94812.66
2023-02-27T15:23:55.254Z,94810.66
2023-02-27T15:26:25.914Z,94803.84
2023-02-27T15:28:54.260Z,94809.78
2023-02-27T15:31:27.033Z,94811.31
2023-02-27T15:33:56.551Z,94812.84
2023-02-27T15:36:27.745Z,94827.00
2023-02-27T15:39:17.540Z,94812.75
2023-02-27T15:41:49.277Z,94818.00
2023-02-27T15:44:19.042Z,94814.34
2023-02-27T15:46:47.799Z,94812.75
2023-02-27T15:49:19.146Z,94813.09
2023-02-27T15:52:01.434Z,94808.44
2023-02-27T15:54:33.759Z,94818.28
2023-02-27T15:57:06.154Z,94819.34
2023-02-27T15:59:38.057Z,94820.03
2023-02-27T16:02:07.232Z,94829.50
2023-02-27T16:04:35.824Z,94822.16
2023-02-27T16:07:10.674Z,94836.78
2023-02-27T16:09:39.201Z,94832.84
2023-02-27T16:12:32.647Z,94823.22
2023-02-27T16:15:31.184Z,94842.81
2023-02-27T16:18:06.709Z,94853.22
2023-02-27T16:20:40.524Z,94848.06
2023-02-27T16:23:17.716Z,94850.94
2023-02-27T16:26:01.775Z,94851.75
2023-02-27T16:28:33.322Z,94854.13
2023-02-27T16:31:02.577Z,94856.50
2023-02-27T16:33:36.676Z,94854.94
2023-02-27T16:36:17.950Z,94868.88
2023-02-27T16:38:46.515Z,94870.84
2023-02-27T16:41:17.011Z,94875.22
2023-02-27T16:43:47.421Z,94886.78
2023-02-27T16:46:20.386Z,94886.44
2023-02-27T16:48:51.741Z,94887.22
2023-02-27T16:51:23.814Z,94881.78
2023-02-27T16:53:52.488Z,94894.78
2023-02-27T16:56:35.729Z,94890.69
2023-02-27T16:59:07.339Z,94894.66
2023-02-27T17:01:35.560Z,94893.41
2023-02-27T17:04:13.449Z,94889.75
2023-02-27T17:06:47.810Z,94894.03
2023-02-27T17:09:15.983Z,94891.47
2023-02-27T17:11:44.015Z,94899.16
2023-02-27T17:14:13.583Z,94909.63
2023-02-27T17:16:41.854Z,94906.66
2023-02-27T17:19:09.820Z,94917.78
2023-02-27T17:21:38.001Z,94919.91
2023-02-27T17:24:07.190Z,94922.72
2023-02-27T17:26:35.674Z,94934.44
2023-02-27T17:29:04.194Z,94933.16
2023-02-27T17:31:33.681Z,94948.75
2023-02-27T17:34:03.618Z,94945.94
2023-02-27T17:36:31.907Z,94945.59
2023-02-27T17:39:01.927Z,94954.59
2023-02-27T17:41:31.541Z,94945.75
2023-02-27T17:44:01.785Z,94958.31
2023-02-27T17:46:31.944Z,94968.81
2023-02-27T17:49:01.894Z,94968.69
2023-02-27T17:51:31.431Z,94975.75
2023-02-27T17:54:02.807Z,94976.97
2023-02-27T17:56:31.199Z,94980.66
2023-02-27T17:58:59.303Z,94987.16
2023-02-27T18:01:29.061Z,94990.75
2023-02-27T18:03:57.320Z,94992.38
2023-02-27T18:06:27.018Z,94993.81
2023-02-27T18:08:55.753Z,94997.94
2023-02-27T18:11:24.372Z,94999.00
2023-02-27T18:13:52.587Z,95014.28
2023-02-27T18:16:22.353Z,95008.69
2023-02-27T18:18:50.979Z,95014.28
2023-02-27T18:21:21.179Z,95019.09
2023-02-27T18:23:51.454Z,95013.22
2023-02-27T18:26:29.848Z,95013.94
2023-02-27T18:29:00.365Z,95026.53
2023-02-27T18:31:31.095Z,95024.03
2023-02-27T18:33:59.434Z,95027.75
2023-02-27T18:36:28.234Z,95027.97
2023-02-27T18:38:58.322Z,95035.13
2023-02-27T18:41:26.540Z,95027.03
2023-02-27T18:43:54.713Z,95041.72
2023-02-27T18:46:23.571Z,95036.69
2023-02-27T18:48:52.084Z,95042.41
2023-02-27T18:51:20.506Z,95034.63
2023-02-27T18:53:50.488Z,95036.44
2023-02-27T18:56:22.928Z,95046.94
2023-02-27T18:58:52.021Z,95047.38
2023-02-27T19:01:22.353Z,95042.97
2023-02-27T19:03:51.183Z,95031.69
2023-02-27T19:06:19.252Z,95033.44
2023-02-27T19:08:47.703Z,95035.53
2023-02-27T19:11:29.556Z,95040.47
2023-02-27T19:13:57.992Z,95045.47
2023-02-27T19:16:26.419Z,95042.50
2023-02-27T19:18:55.980Z,95042.03
2023-02-27T19:21:23.961Z,95046.03
2023-02-27T19:23:52.305Z,95042.72
2023-02-27T19:26:20.619Z,95050.34
2023-02-27T19:28:53.978Z,95047.44
2023-02-27T19:31:24.023Z,95054.25
2023-02-27T19:33:52.194Z,95053.69
2023-02-27T19:36:21.846Z,95059.91
2023-02-27T19:38:50.198Z,95063.44
2023-02-27T19:41:18.688Z,95062.16
2023-02-27T19:43:47.582Z,95057.25
2023-02-27T19:46:18.529Z,95058.84
2023-02-27T19:48:46.873Z,95065.94
2023-02-27T19:51:16.566Z,95072.69
2023-02-27T19:53:48.377Z,95070.41
2023-02-27T19:56:17.981Z,95066.53
2023-02-27T19:58:47.789Z,95073.28
2023-02-27T20:01:23.562Z,95066.41
2023-02-27T20:03:51.811Z,95066.53
2023-02-27T20:06:21.845Z,95072.22
2023-02-27T20:08:50.029Z,95068.22
2023-02-27T20:11:19.801Z,95065.47
2023-02-27T20:13:48.276Z,95062.63
2023-02-27T20:16:19.296Z,95067.78
2023-02-27T20:18:50.022Z,95063.31
2023-02-27T20:21:21.473Z,95070.41
2023-02-27T20:23:50.751Z,95070.88
2023-02-27T20:26:20.606Z,95072.47
2023-02-27T20:28:50.890Z,95075.44
2023-02-27T20:31:21.263Z,95076.81
2023-02-27T20:33:51.138Z,95076.28
2023-02-27T20:36:19.189Z,95075.22
2023-02-27T20:38:47.192Z,95067.38
2023-02-27T20:41:16.720Z,95072.28
2023-02-27T20:43:45.276Z,95077.84
2023-02-27T20:46:15.847Z,95080.69
2023-02-27T20:48:44.341Z,95086.19
2023-02-27T20:51:16.005Z,95085.19
2023-02-27T20:53:45.560Z,95083.22
2023-02-27T20:56:13.691Z,95089.63
2023-02-27T20:58:42.240Z,95096.03
2023-02-27T21:01:12.174Z,95088.91
2023-02-27T21:03:41.698Z,95082.88
2023-02-27T21:06:11.850Z,95087.94
2023-02-27T21:08:43.219Z,95088.94
2023-02-27T21:11:13.865Z,95087.47
2023-02-27T21:13:42.275Z,95089.63
2023-02-27T21:16:12.352Z,95089.53
2023-02-27T21:18:40.322Z,95087.81
2023-02-27T21:21:11.168Z,95077.19
2023-02-27T21:23:42.201Z,95091.94
2023-02-27T21:26:10.860Z,95089.41
2023-02-27T21:28:46.804Z,95093.31
2023-02-27T21:31:15.669Z,95088.44
2023-02-27T21:33:43.807Z,95095.47
2023-02-27T21:36:12.658Z,95095.84
2023-02-27T21:38:42.213Z,95100.16
2023-02-27T21:41:12.864Z,95089.56
2023-02-27T21:43:41.276Z,95090.69
2023-02-27T21:46:11.311Z,95084.25
2023-02-27T21:48:40.295Z,95090.09
2023-02-27T21:51:08.348Z,95099.72
2023-02-27T21:53:37.287Z,95094.28
2023-02-27T21:56:08.821Z,95092.63
2023-02-27T21:58:37.118Z,95090.69
2023-02-27T22:01:15.327Z,95094.22
2023-02-27T22:03:44.529Z,95097.13
2023-02-27T22:06:12.585Z,95099.97
2023-02-27T22:08:41.048Z,95100.13
2023-02-27T22:11:10.796Z,95110.25
2023-02-27T22:13:38.998Z,95102.72
2023-02-27T22:16:09.039Z,95105.00
2023-02-27T22:18:37.533Z,95109.72
2023-02-27T22:21:09.143Z,95109.47
2023-02-27T22:23:37.920Z,95103.97
2023-02-27T22:26:08.073Z,95110.16
2023-02-27T22:28:39.081Z,95113.81
2023-02-27T22:31:11.547Z,95110.97
2023-02-27T22:33:40.666Z,95114.03
2023-02-27T22:36:10.423Z,95119.88
2023-02-27T22:38:38.808Z,95114.38
2023-02-27T22:41:09.304Z,95113.03
2023-02-27T22:43:39.784Z,95115.41
2023-02-27T22:46:08.242Z,95114.50
2023-02-27T22:48:36.888Z,95114.72
2023-02-27T22:51:07.554Z,95119.75
2023-02-27T22:53:38.398Z,95124.50
2023-02-27T22:56:08.279Z,95117.81
2023-02-27T22:58:38.963Z,95125.25
2023-02-27T23:01:11.417Z,95120.50
2023-02-27T23:03:40.135Z,95117.09
2023-02-27T23:06:10.584Z,95114.78
2023-02-27T23:08:38.659Z,95124.88
2023-02-27T23:11:07.044Z,95124.13
2023-02-27T23:13:35.024Z,95121.81
2023-02-27T23:16:11.258Z,95120.50
2023-02-27T23:18:39.724Z,95115.88
2023-02-27T23:21:08.421Z,95114.72
2023-02-27T23:23:37.183Z,95120.50
2023-02-27T23:26:06.277Z,95106.72
2023-02-27T23:28:35.421Z,95119.41
2023-02-27T23:31:04.981Z,95120.31
2023-02-27T23:33:33.250Z,95119.47
2023-02-27T23:36:01.796Z,95114.72
2023-02-27T23:38:30.168Z,95120.06
2023-02-27T23:40:58.167Z,95116.53
2023-02-27T23:43:26.266Z,95128.75
2023-02-27T23:45:54.306Z,95130.63
2023-02-27T23:48:24.014Z,95123.41
2023-02-27T23:50:52.005Z,95124.63
2023-02-27T23:53:20.719Z,95135.63
2023-02-27T23:55:48.685Z,95123.34
2023-02-27T23:58:16.668Z,95128.16
